Latest Weather Observations for Stenhouse Bay

IDS60801

Issued at 3:41 pm CST Tuesday 20 April 2021 (issued every 10 minutes, with the page automatically refreshed every 10 minutes)

About weather observations | Map of weather stations | Latest weather observations for SA | Other Formats
Station Details ID: 022049 Name: STENHOUSE BAY Lat: -35.28 Lon: 136.94 Height: 42.0 m
Data from the previous 72 hours. | See also: Recent months at Stenhouse Bay
Date/Time
CST
Temp
°C
App
Temp
°C
Dew
Point
°C
Rel
Hum
%
Delta-T
°C
Wind Press
QNH
hPa
Press
MSL
hPa
Rain since
9am
mm
Dir  Spd
km/h
Gust
km/h
Spd
kts
Gust
kts
20/03:30pm 16.1 11.8 5.4 49 5.1 S 17 22 9 12 1018.1 1018.0 0.0
20/03:00pm 17.1 13.0 6.3 49 5.3 SSE 17 22 9 12 1017.9 1017.8 0.0
20/02:30pm 17.1 12.7 6.6 50 5.2 SSE 19 26 10 14 1017.7 1017.6 0.0
20/02:00pm 16.8 11.8 6.3 50 5.1 SSE 22 28 12 15 1017.5 1017.4 0.0
20/01:30pm 16.5 10.5 7.2 54 4.6 SSE 28 35 15 19 1017.5 1017.4 0.0
20/01:00pm 17.2 11.6 7.3 52 5.0 S 26 35 14 19 1017.6 1017.5 0.0
20/12:30pm 16.4 9.7 7.3 55 4.5 S 32 41 17 22 1017.8 1017.7 0.0
20/12:00pm 16.5 11.3 7.2 54 4.6 S 24 32 13 17 1017.9 1017.8 0.0
20/11:30am 16.4 11.1 8.6 60 4.0 S 26 33 14 18 1017.8 1017.7 0.0
20/11:00am 15.5 8.9 8.5 63 3.6 S 33 43 18 23 1017.4 1017.3 0.0
20/10:30am 16.1 10.2 9.1 63 3.6 S 30 39 16 21 1017.1 1017.0 0.0
20/10:00am 15.9 9.4 9.1 64 3.5 S 33 43 18 23 1016.7 1016.6 0.0
20/09:30am 14.6 7.8 9.2 70 2.8 S 35 43 19 23 1016.6 1016.5 0.0
20/09:00am 14.5 7.5 10.1 75 2.3 S 37 46 20 25 1016.1 1016.0 4.6
20/08:30am 14.3 7.9 10.7 79 1.9 S 35 44 19 24 1015.7 1015.6 4.6
20/08:00am 14.3 7.3 11.1 81 1.7 S 39 46 21 25 1015.0 1014.9 4.6
20/07:30am 14.4 8.3 11.6 83 1.5 SSE 35 46 19 25 1014.0 1013.9 4.6
20/07:00am 14.7 8.7 12.0 84 1.5 S 35 44 19 24 1013.6 1013.5 4.6
20/06:30am 14.9 10.0 12.4 85 1.4 SSW 30 44 16 24 1013.0 1012.9 4.6
20/06:00am 16.3 12.7 11.7 74 2.5 W 22 33 12 18 1012.9 1012.8 0.0
20/05:30am 15.9 12.3 11.7 76 2.3 WNW 22 32 12 17 1012.5 1012.4 0.0
20/05:00am 15.5 12.3 11.3 76 2.3 WNW 19 24 10 13 1012.4 1012.3 0.0
20/04:30am 15.4 12.1 10.8 74 2.4 WNW 19 26 10 14 1012.4 1012.3 0.0
20/04:00am 15.3 12.2 10.3 72 2.6 WNW 17 30 9 16 1012.5 1012.4 0.0
20/03:30am 15.3 11.9 10.5 73 2.5 WNW 19 26 10 14 1012.6 1012.5 0.0
20/03:00am 14.9 11.9 10.5 75 2.3 NW 17 24 9 13 1012.8 1012.7 0.0
20/02:30am 15.0 11.6 10.6 75 2.3 WNW 19 24 10 13 1013.0 1012.9 0.0
20/02:00am 15.1 12.1 10.7 75 2.3 WNW 17 24 9 13 1013.3 1013.2 0.0
20/01:30am 15.0 11.9 10.4 74 2.4 WNW 17 26 9 14 1013.5 1013.4 0.0
20/01:00am 14.9 12.4 10.9 77 2.1 WNW 15 24 8 13 1013.7 1013.6 0.0
20/12:30am 14.0 11.3 10.2 78 2.0 NW 15 20 8 11 1013.9 1013.8 0.0
20/12:00am 13.8 11.3 9.8 77 2.1 NW 13 15 7 8 1014.1 1014.0 0.0
 
Date/Time
CST
Temp
°C
App
Temp
°C
Dew
Point
°C
Rel
Hum
%
Delta-T
°C
Wind Press
QNH
hPa
Press
MSL
hPa
Rain since
9am
mm
Dir  Spd
km/h
Gust
km/h
Spd
kts
Gust
kts
19/11:30pm 14.4 11.7 10.2 76 2.2 NW 15 19 8 10 1014.3 1014.2 0.0
19/11:00pm 13.7 10.3 9.0 73 2.4 NW 17 19 9 10 1014.4 1014.3 0.0
19/10:30pm 12.8 10.1 7.3 69 2.7 NW 11 13 6 7 1014.5 1014.4 0.0
19/10:00pm 13.8 11.5 7.3 65 3.2 WNW 9 13 5 7 1014.5 1014.4 0.0
19/09:30pm 14.5 11.8 8.9 69 2.8 W 13 13 7 7 1014.5 1014.4 0.0
19/09:00pm 15.3 12.3 9.2 67 3.1 W 15 19 8 10 1014.7 1014.6 0.0
19/08:30pm 15.9 12.8 10.2 69 3.0 W 17 22 9 12 1014.6 1014.5 0.0
19/08:00pm 16.2 13.1 10.3 68 3.1 W 17 24 9 13 1014.9 1014.8 0.0
19/07:30pm 16.3 13.2 10.4 68 3.1 W 17 26 9 14 1015.1 1015.0 0.0
19/07:00pm 16.8 13.2 10.4 66 3.4 W 20 30 11 16 1015.2 1015.1 0.0
19/06:30pm 17.2 13.2 10.6 65 3.5 W 22 32 12 17 1015.2 1015.1 0.0
19/06:00pm 17.3 13.7 10.4 64 3.7 W 20 28 11 15 1015.0 1014.9 0.0
19/05:30pm 17.5 14.9 10.6 64 3.7 W 15 22 8 12 1014.9 1014.8 0.0
19/05:00pm 17.8 14.2 9.9 60 4.2 W 19 28 10 15 1014.9 1014.8 0.0
19/04:30pm 18.1 14.1 8.9 55 4.8 W 20 30 11 16 1014.9 1014.8 0.0
19/04:00pm 18.7 14.7 9.2 54 5.0 W 20 26 11 14 1015.0 1014.9 0.0
19/03:30pm 18.4 14.0 8.9 54 4.9 W 22 30 12 16 1015.3 1015.2 0.0
19/03:00pm 18.8 14.2 9.6 55 4.9 W 24 32 13 17 1015.3 1015.2 0.0
19/02:30pm 19.7 14.7 8.1 47 6.0 WNW 24 33 13 18 1015.2 1015.1 0.0
19/02:00pm 20.3 15.4 8.6 47 6.1 NW 24 37 13 20 1015.5 1015.4 0.0
19/01:30pm 20.1 14.5 7.1 43 6.6 NW 26 35 14 19 1015.9 1015.8 0.0
19/01:00pm 18.9 13.1 9.4 54 5.0 NW 30 41 16 22 1016.5 1016.4 0.0
19/12:30pm 19.0 12.9 9.8 55 4.9 NW 32 44 17 24 1016.9 1016.8 0.0
19/12:00pm 20.2 14.8 9.5 50 5.7 NW 28 39 15 21 1017.4 1017.3 0.0
19/11:30am 19.4 13.9 9.0 51 5.5 NW 28 41 15 22 1017.8 1017.7 0.0
19/11:00am 18.5 13.3 10.1 58 4.5 NW 28 37 15 20 1018.1 1018.0 0.0
19/10:30am 18.8 14.9 9.6 55 4.9 NW 20 33 11 18 1018.2 1018.1 0.0
19/10:00am 18.5 13.7 10.3 59 4.4 NW 26 39 14 21 1018.5 1018.4 0.0
19/09:30am 18.4 13.9 10.0 58 4.5 NW 24 37 13 20 1018.8 1018.7 0.0
19/09:00am 17.7 14.0 10.1 61 4.0 NW 20 28 11 15 1018.7 1018.6 0.0
19/08:30am 16.8 14.8 10.0 64 3.6 NW 11 24 6 13 1018.9 1018.8 0.0
19/08:00am 16.3 14.5 10.8 70 2.9 NW 11 19 6 10 1018.9 1018.8 0.0
19/07:30am 15.8 12.8 10.8 72 2.7 WNW 17 22 9 12 1018.7 1018.6 0.0
19/07:00am 15.2 12.9 10.4 73 2.5 WNW 13 17 7 9 1018.6 1018.5 0.0
19/06:30am 14.6 12.7 10.4 76 2.2 NNW 11 13 6 7 1018.4 1018.3 0.0
19/06:00am 15.0 13.1 10.6 75 2.3 NW 11 15 6 8 1018.6 1018.5 0.0
19/05:30am 15.1 13.3 10.9 76 2.2 NW 11 15 6 8 1018.7 1018.6 0.0
19/05:00am 15.1 13.3 10.7 75 2.3 WNW 11 15 6 8 1018.8 1018.7 0.0
19/04:30am 14.8 12.9 10.6 76 2.2 WNW 11 15 6 8 1019.0 1018.9 0.0
19/04:00am 14.3 12.3 10.3 77 2.1 WNW 11 13 6 7 1019.1 1019.0 0.0
19/03:30am 14.1 12.2 10.5 79 1.9 WNW 11 13 6 7 1019.3 1019.2 0.0
19/03:00am 13.5 11.8 9.9 79 1.9 NW 9 11 5 6 1019.4 1019.3 0.0
19/02:30am 13.9 12.3 10.1 78 2.0 WNW 9 11 5 6 1019.8 1019.7 0.0
19/02:00am 13.7 12.0 9.9 78 2.0 WNW 9 9 5 5 1020.2 1020.1 0.0
19/01:30am 14.4 13.2 10.2 76 2.2 WSW 7 9 4 5 1020.6 1020.5 0.0
19/01:00am 15.2 13.8 11.0 76 2.2 WSW 9 13 5 7 1020.8 1020.7 0.0
19/12:30am 15.2 13.2 11.6 79 1.9 WSW 13 20 7 11 1021.0 1020.9 0.0
19/12:00am 15.4 13.8 11.4 77 2.1 W 11 17 6 9 1021.3 1021.2 0.0
 
Date/Time
CST
Temp
°C
App
Temp
°C
Dew
Point
°C
Rel
Hum
%
Delta-T
°C
Wind Press
QNH
hPa
Press
MSL
hPa
Rain since
9am
mm
Dir  Spd
km/h
Gust
km/h
Spd
kts
Gust
kts
18/11:30pm 15.5 14.2 11.3 76 2.2 WSW 9 15 5 8 1021.7 1021.6 0.0
18/11:00pm 15.5 13.5 11.5 77 2.2 SW 13 17 7 9 1022.0 1021.9 0.0
18/10:30pm 15.7 12.7 11.9 78 2.1 SW 19 24 10 13 1022.3 1022.2 0.0
18/10:00pm 15.9 13.8 11.1 73 2.6 SW 13 24 7 13 1022.5 1022.4 0.0
18/09:30pm 14.8 12.6 9.4 70 2.8 WSW 11 17 6 9 1022.6 1022.5 0.0
18/09:00pm 14.6 12.3 9.0 69 2.8 W 11 13 6 7 1022.7 1022.6 0.0
18/08:30pm 14.8 12.5 9.0 68 2.9 W 11 13 6 7 1022.6 1022.5 0.0
18/08:00pm 15.7 13.6 9.6 67 3.2 W 11 15 6 8 1022.7 1022.6 0.0
18/07:30pm 16.4 14.4 10.3 67 3.2 WSW 11 19 6 10 1022.9 1022.8 0.0
18/07:00pm 16.2 14.6 8.7 61 3.8 WNW 7 9 4 5 1023.0 1022.9 0.0
18/06:30pm 16.4 14.0 8.6 60 4.0 W 11 19 6 10 1023.0 1022.9 0.0
18/06:00pm 16.7 13.7 9.1 61 3.9 WSW 15 22 8 12 1023.0 1022.9 0.0
18/05:30pm 17.1 14.3 10.0 63 3.7 WSW 15 20 8 11 1023.1 1023.0 0.0
18/05:00pm 17.5 14.1 7.8 53 4.9 WSW 15 20 8 11 1023.1 1023.0 0.0
18/04:30pm 17.6 14.6 7.9 53 4.9 SW 13 17 7 9 1023.2 1023.1 0.0
18/04:00pm 17.8 13.7 7.8 52 5.1 SW 19 24 10 13 1023.2 1023.1 0.0
18/03:30pm 18.5 14.4 7.9 50 5.4 SW 19 26 10 14 1023.4 1023.3 0.0
18/03:00pm 18.8 14.7 7.9 49 5.6 SW 19 26 10 14 1023.4 1023.3 0.0
18/02:30pm 18.6 14.6 8.3 51 5.3 SW 19 26 10 14 1023.4 1023.3 0.0
18/02:00pm 19.1 15.0 7.8 48 5.8 SW 19 26 10 14 1023.7 1023.6 0.0
18/01:30pm 19.4 15.4 8.1 48 5.8 SW 19 24 10 13 1024.0 1023.9 0.0
18/01:00pm 20.0 16.3 8.0 46 6.2 SW 17 24 9 13 1024.3 1024.2 0.0
18/12:30pm 19.6 16.1 8.9 50 5.6 SW 17 22 9 12 1024.8 1024.8 0.0
18/12:00pm 17.8 13.6 7.5 51 5.2 SW 19 24 10 13 1025.1 1025.1 0.0
18/11:30am 18.4 15.4 7.8 50 5.4 SW 13 17 7 9 1025.4 1025.4 0.0
18/11:00am 16.7 14.7 8.7 59 4.1 WSW 9 15 5 8 1025.6 1025.6 0.0
18/10:30am 17.0 17.0 11.3 69 3.1 S 2 6 1 3 1025.8 1025.8 0.0
18/10:00am 16.8 16.8 12.3 75 2.5 ENE 4 6 2 3 1026.1 1026.1 0.0
18/09:30am 16.2 17.0 12.6 79 2.0 CALM 0 0 0 0 1026.3 1026.3 0.0
18/09:00am 15.4 16.1 12.2 81 1.7 CALM 0 0 0 0 1026.4 1026.4 1.2
18/08:30am 15.4 15.7 12.2 81 1.7 NNW 2 4 1 2 1026.5 1026.5 1.2
18/08:00am 15.0 15.6 11.8 81 1.7 CALM 0 0 0 0 1026.2 1026.2 1.2
18/07:30am 14.6 15.0 11.2 80 1.8 CALM 0 0 0 0 1026.0 1026.0 1.2
18/07:00am 14.2 14.5 10.8 80 1.8 CALM 0 0 0 0 1025.8 1025.8 1.0
18/06:30am 14.3 14.6 10.9 80 1.8 CALM 0 2 0 1 1025.9 1025.9 1.0
18/06:00am 14.2 12.8 10.8 80 1.8 SSE 9 13 5 7 1025.9 1025.9 1.0
18/05:30am 14.3 12.1 10.7 79 1.9 S 13 17 7 9 1025.9 1025.9 1.0
18/05:00am 15.3 15.0 10.1 71 2.7 WSW 2 6 1 3 1025.6 1025.6 0.0
18/04:30am 15.5 13.2 10.3 71 2.7 S 13 17 7 9 1025.6 1025.6 0.0
18/04:00am 14.2 11.8 8.8 70 2.7 W 11 13 6 7 1025.6 1025.6 0.0
18/03:30am 14.8 13.0 9.4 70 2.8 WSW 9 11 5 6 1025.7 1025.7 0.0
18/03:00am 15.2 13.9 9.8 70 2.8 W 7 11 4 6 1026.0 1026.0 0.0
18/02:30am 15.0 13.2 9.6 70 2.8 WSW 9 11 5 6 1026.3 1026.3 0.0
18/02:00am 14.9 13.4 9.3 69 2.9 WSW 7 9 4 5 1026.4 1026.4 0.0
18/01:30am 15.0 13.6 9.4 69 2.9 WSW 7 11 4 6 1026.6 1026.6 0.0
18/01:00am 15.5 13.7 9.4 67 3.2 SW 9 13 5 7 1026.7 1026.7 0.0
18/12:30am 15.5 12.8 9.0 65 3.3 SW 13 17 7 9 1026.9 1026.9 0.0
18/12:00am 15.9 14.2 10.0 68 3.1 SW 9 13 5 7 1026.9 1026.9 0.0
 
Date/Time
CST
Temp
°C
App
Temp
°C
Dew
Point
°C
Rel
Hum
%
Delta-T
°C
Wind Press
QNH
hPa
Press
MSL
hPa
Rain since
9am
mm
Dir  Spd
km/h
Gust
km/h
Spd
kts
Gust
kts
17/11:30pm 16.0 14.0 10.3 69 3.0 SW 11 15 6 8 1027.1 1027.1 0.0
17/11:00pm 16.0 13.9 11.2 73 2.6 SW 13 17 7 9 1027.4 1027.4 0.0
17/10:30pm 15.6 14.8 11.2 75 2.3 WSW 6 9 3 5 1027.6 1027.6 0.0
17/10:00pm 15.8 14.5 11.2 74 2.5 SW 9 13 5 7 1027.7 1027.7 0.0
17/09:30pm 15.8 14.4 10.8 72 2.6 SW 9 15 5 8 1027.6 1027.6 0.0
17/09:00pm 15.7 14.2 10.5 71 2.7 SW 9 13 5 7 1027.7 1027.7 0.0
17/08:30pm 15.7 13.7 10.2 70 2.9 SSW 11 15 6 8 1027.8 1027.8 0.0
17/08:00pm 15.7 12.3 10.7 72 2.7 SSW 19 24 10 13 1027.8 1027.8 0.0
17/07:30pm 15.6 12.0 10.4 71 2.7 SSW 20 28 11 15 1027.9 1027.9 0.0
17/07:00pm 16.1 13.2 11.1 72 2.7 SSW 17 26 9 14 1027.7 1027.7 0.0
17/06:30pm 15.7 13.3 11.3 75 2.4 SSW 15 20 8 11 1027.5 1027.5 0.0
17/06:00pm 16.4 13.8 10.7 69 3.0 WSW 15 20 8 11 1027.3 1027.3 0.0
17/05:30pm 16.3 14.0 10.4 68 3.1 W 13 20 7 11 1027.2 1027.2 0.0
17/05:00pm 16.5 13.8 10.4 67 3.2 WSW 15 20 8 11 1027.1 1027.1 0.0
17/04:30pm 17.0 14.3 10.4 65 3.5 WSW 15 20 8 11 1027.2 1027.2 0.0
17/04:00pm 17.4 14.2 9.8 61 4.0 WSW 17 24 9 13 1027.2 1027.2 0.0

Other formats

Comma delimited format used in spreadsheet applications
http://www.bom.gov.au/fwo/IDS60801/IDS60801.95806.axf

JavaScript Object Notation format (JSON) in row-major order
http://www.bom.gov.au/fwo/IDS60801/IDS60801.95806.json

Data quality

Most of these data are generated automatically and are frequently updated. Quality checks on data are not normally performed. It is possible for incorrect values to appear. Refer to information at About Latest Weather Observations and please check the disclaimer before using these data.